createdAt,value
2018-12-25T00:02:29.562Z,5.56
2018-12-25T00:05:11.202Z,5.56
2018-12-25T00:07:49.165Z,5.55
2018-12-25T00:10:28.520Z,5.59
2018-12-25T00:13:08.229Z,5.61
2018-12-25T00:15:48.455Z,5.67
2018-12-25T00:18:30.978Z,5.68
2018-12-25T00:21:10.912Z,5.71
2018-12-25T00:23:53.413Z,5.72
2018-12-25T00:26:34.003Z,5.73
2018-12-25T00:29:13.211Z,5.74
2018-12-25T00:31:52.478Z,5.75
2018-12-25T00:34:36.854Z,5.78
2018-12-25T00:37:16.836Z,5.80
2018-12-25T00:39:57.523Z,5.82
2018-12-25T00:42:41.950Z,5.82
2018-12-25T00:45:26.894Z,5.73
2018-12-25T00:48:08.191Z,5.83
2018-12-25T00:50:46.478Z,5.83
2018-12-25T00:53:29.718Z,5.83
2018-12-25T00:56:13.985Z,5.82
2018-12-25T00:58:57.933Z,5.81
2018-12-25T01:01:38.555Z,5.82
2018-12-25T01:04:23.737Z,5.84
2018-12-25T01:07:03.218Z,5.84
2018-12-25T01:09:43.808Z,5.85
2018-12-25T01:12:27.481Z,5.86
2018-12-25T01:15:06.567Z,5.89
2018-12-25T01:17:53.265Z,5.90
2018-12-25T01:20:32.776Z,5.92
2018-12-25T01:23:16.250Z,5.93
2018-12-25T01:25:57.597Z,5.94
2018-12-25T01:28:47.806Z,5.97
2018-12-25T01:31:31.126Z,5.99
2018-12-25T01:34:11.301Z,5.99
2018-12-25T01:36:51.175Z,6.00
2018-12-25T01:39:31.970Z,6.03
2018-12-25T01:42:19.980Z,6.05
2018-12-25T01:44:58.492Z,6.09
2018-12-25T01:47:44.146Z,6.10
2018-12-25T01:50:25.284Z,6.10
2018-12-25T01:53:05.455Z,6.12
2018-12-25T01:55:45.056Z,6.12
2018-12-25T01:58:27.477Z,6.14
2018-12-25T02:01:05.756Z,6.14
2018-12-25T02:03:50.024Z,6.15
2018-12-25T02:06:33.187Z,6.16
2018-12-25T02:09:20.295Z,6.17
2018-12-25T02:12:02.636Z,6.18
2018-12-25T02:14:42.405Z,6.18
2018-12-25T02:17:24.189Z,6.19
2018-12-25T02:20:05.492Z,6.21
2018-12-25T02:22:47.939Z,6.21
2018-12-25T02:25:30.733Z,6.22
2018-12-25T02:28:10.262Z,6.24
2018-12-25T02:30:48.981Z,6.26
2018-12-25T02:33:29.578Z,6.28
2018-12-25T02:36:10.549Z,6.32
2018-12-25T02:38:53.410Z,6.33
2018-12-25T02:41:34.411Z,6.36
2018-12-25T02:44:17.483Z,6.38
2018-12-25T02:46:56.279Z,6.39
2018-12-25T02:49:36.670Z,6.42
2018-12-25T02:52:18.776Z,6.45
2018-12-25T02:54:58.107Z,6.46
2018-12-25T02:57:40.259Z,6.50
2018-12-25T03:00:19.216Z,6.51
2018-12-25T03:02:59.606Z,6.54
2018-12-25T03:05:44.722Z,6.56
2018-12-25T03:08:25.919Z,6.59
2018-12-25T03:11:07.190Z,6.62
2018-12-25T03:13:51.328Z,6.46
2018-12-25T03:16:31.648Z,6.66
2018-12-25T03:19:11.987Z,6.60
2018-12-25T03:21:52.718Z,6.73
2018-12-25T03:24:33.313Z,6.74
2018-12-25T03:27:15.746Z,6.75
2018-12-25T03:29:58.144Z,6.75
2018-12-25T03:32:40.765Z,6.76
2018-12-25T03:35:22.405Z,6.75
2018-12-25T03:38:06.258Z,6.75
2018-12-25T03:40:46.679Z,6.75
2018-12-25T03:43:27.087Z,6.75
2018-12-25T03:46:11.443Z,6.76
2018-12-25T03:48:51.704Z,6.78
2018-12-25T03:51:33.953Z,6.80
2018-12-25T03:54:21.409Z,6.82
2018-12-25T03:57:02.418Z,6.84
2018-12-25T03:59:41.237Z,6.85
2018-12-25T04:02:28.210Z,6.86
2018-12-25T04:05:08.322Z,6.87
2018-12-25T04:07:49.310Z,6.86
2018-12-25T04:10:33.426Z,6.86
2018-12-25T04:13:14.044Z,6.86
2018-12-25T04:15:54.942Z,6.87
2018-12-25T04:18:36.579Z,6.87
2018-12-25T04:21:17.947Z,6.88
2018-12-25T04:23:58.249Z,6.87
2018-12-25T04:26:43.937Z,6.88
2018-12-25T04:29:29.291Z,6.88
2018-12-25T04:32:09.379Z,6.90
2018-12-25T04:34:49.585Z,6.89
2018-12-25T04:37:30.357Z,6.89
2018-12-25T04:40:08.469Z,6.91
2018-12-25T04:42:48.660Z,6.89
2018-12-25T04:45:28.012Z,6.89
2018-12-25T04:48:07.878Z,6.88
2018-12-25T04:50:48.233Z,6.88
2018-12-25T04:53:28.595Z,6.88
2018-12-25T04:56:07.286Z,6.89
2018-12-25T04:58:47.172Z,6.50
2018-12-25T05:01:25.366Z,6.88
2018-12-25T05:04:06.541Z,6.88
2018-12-25T05:06:46.313Z,6.89
2018-12-25T05:09:25.934Z,6.88
2018-12-25T05:12:04.550Z,6.89
2018-12-25T05:14:44.990Z,6.89
2018-12-25T05:17:26.225Z,6.89
2018-12-25T05:20:05.805Z,6.89
2018-12-25T05:22:48.622Z,6.90
2018-12-25T05:25:30.440Z,6.89
2018-12-25T05:28:12.875Z,6.91
2018-12-25T05:30:51.072Z,6.91
2018-12-25T05:33:29.944Z,6.89
2018-12-25T05:36:14.443Z,6.88
2018-12-25T05:38:53.926Z,6.89
2018-12-25T05:41:34.380Z,6.88
2018-12-25T05:44:16.889Z,6.89
2018-12-25T05:46:54.232Z,6.91
2018-12-25T05:49:33.836Z,6.89
2018-12-25T05:52:13.756Z,6.89
2018-12-25T05:54:57.748Z,6.91
2018-12-25T05:57:36.534Z,6.91
2018-12-25T06:00:16.954Z,6.91
2018-12-25T06:02:57.222Z,6.93
2018-12-25T06:05:38.205Z,6.93
2018-12-25T06:08:31.405Z,6.94
2018-12-25T06:11:11.566Z,6.92
2018-12-25T06:13:52.532Z,6.91
2018-12-25T06:16:33.049Z,6.92
2018-12-25T06:19:16.779Z,6.91
2018-12-25T06:22:00.397Z,6.93
2018-12-25T06:24:36.912Z,6.92
2018-12-25T06:27:16.465Z,6.93
2018-12-25T06:29:58.040Z,6.95
2018-12-25T06:32:38.612Z,6.95
2018-12-25T06:35:18.683Z,6.95
2018-12-25T06:38:00.559Z,6.97
2018-12-25T06:40:47.152Z,6.98
2018-12-25T06:43:28.777Z,6.96
2018-12-25T06:46:08.648Z,6.98
2018-12-25T06:48:48.956Z,6.98
2018-12-25T06:51:32.518Z,6.98
2018-12-25T06:54:11.650Z,6.99
2018-12-25T06:56:50.977Z,6.99
2018-12-25T06:59:33.582Z,7.00
2018-12-25T07:02:09.853Z,6.99
2018-12-25T07:04:49.552Z,6.98
2018-12-25T07:07:28.846Z,6.96
2018-12-25T07:10:09.757Z,6.94
2018-12-25T07:12:48.700Z,6.91
2018-12-25T07:15:33.185Z,6.88
2018-12-25T07:18:10.095Z,6.85
2018-12-25T07:20:48.845Z,6.82
2018-12-25T07:23:29.106Z,6.80
2018-12-25T07:26:07.976Z,6.77
2018-12-25T07:28:50.757Z,6.73
2018-12-25T07:31:31.488Z,6.69
2018-12-25T07:34:12.280Z,6.65
2018-12-25T07:36:54.791Z,6.65
2018-12-25T07:39:37.766Z,6.65
2018-12-25T07:42:17.210Z,6.66
2018-12-25T07:44:59.525Z,6.67
2018-12-25T07:47:37.530Z,6.66
2018-12-25T07:50:19.401Z,6.65
2018-12-25T07:53:01.688Z,6.65
2018-12-25T07:55:40.545Z,6.66
2018-12-25T07:58:22.150Z,6.68
2018-12-25T08:01:02.100Z,6.70
2018-12-25T08:03:42.088Z,6.72
2018-12-25T08:06:25.969Z,6.70
2018-12-25T08:09:05.690Z,6.71
2018-12-25T08:11:45.956Z,6.72
2018-12-25T08:14:28.140Z,6.72
2018-12-25T08:17:06.435Z,6.75
2018-12-25T08:19:45.566Z,6.76
2018-12-25T08:22:24.421Z,6.78
2018-12-25T08:25:14.369Z,6.80
2018-12-25T08:27:52.498Z,6.80
2018-12-25T08:30:29.417Z,6.80
2018-12-25T08:33:10.890Z,6.80
2018-12-25T08:35:50.290Z,6.79
2018-12-25T08:38:33.101Z,6.79
2018-12-25T08:41:12.827Z,6.78
2018-12-25T08:43:53.456Z,6.77
2018-12-25T08:46:35.590Z,6.66
2018-12-25T08:49:23.327Z,6.72
2018-12-25T08:52:03.375Z,6.72
2018-12-25T08:54:41.092Z,6.74
2018-12-25T08:57:23.467Z,6.80
2018-12-25T09:00:08.818Z,6.87
2018-12-25T09:02:59.657Z,6.91
2018-12-25T09:05:41.480Z,6.90
2018-12-25T09:08:21.100Z,6.94
2018-12-25T09:11:05.529Z,7.01
2018-12-25T09:13:44.540Z,7.07
2018-12-25T09:16:28.531Z,7.12
2018-12-25T09:19:11.441Z,7.17
2018-12-25T09:21:56.445Z,7.20
2018-12-25T09:24:43.973Z,7.23
2018-12-25T09:27:23.837Z,7.27
2018-12-25T09:30:10.204Z,7.28
2018-12-25T09:32:50.209Z,7.29
2018-12-25T09:35:31.442Z,7.27
2018-12-25T09:38:17.386Z,7.26
2018-12-25T09:40:57.121Z,7.25
2018-12-25T09:43:34.294Z,7.23
2018-12-25T09:46:11.535Z,7.27
2018-12-25T09:48:48.856Z,7.30
2018-12-25T09:51:34.231Z,7.34
2018-12-25T09:54:10.061Z,7.34
2018-12-25T09:56:55.303Z,7.36
2018-12-25T09:59:34.170Z,7.42
2018-12-25T10:02:12.805Z,7.48
2018-12-25T10:04:52.922Z,7.54
2018-12-25T10:07:32.271Z,7.59
2018-12-25T10:10:11.795Z,7.63
2018-12-25T10:12:51.953Z,7.69
2018-12-25T10:15:30.250Z,7.72
2018-12-25T10:18:14.092Z,7.76
2018-12-25T10:20:57.310Z,7.80
2018-12-25T10:23:38.293Z,7.83
2018-12-25T10:26:20.979Z,7.88
2018-12-25T10:29:00.117Z,7.94
2018-12-25T10:31:39.272Z,8.01
2018-12-25T10:34:14.613Z,8.06
2018-12-25T10:36:52.256Z,8.11
2018-12-25T10:39:29.990Z,8.14
2018-12-25T10:42:13.632Z,8.16
2018-12-25T10:44:53.551Z,8.17
2018-12-25T10:47:33.858Z,8.19
2018-12-25T10:50:17.703Z,8.19
2018-12-25T10:53:06.335Z,8.19
2018-12-25T10:55:45.743Z,8.18
2018-12-25T10:58:25.488Z,8.20
2018-12-25T11:01:21.848Z,8.23
2018-12-25T11:04:02.310Z,8.25
2018-12-25T11:06:43.358Z,8.23
2018-12-25T11:09:24.443Z,8.24
2018-12-25T11:12:03.302Z,8.22
2018-12-25T11:14:38.220Z,8.17
2018-12-25T11:17:17.726Z,8.15
2018-12-25T11:19:57.556Z,8.10
2018-12-25T11:22:34.712Z,8.10
2018-12-25T11:25:13.740Z,8.05
2018-12-25T11:27:52.938Z,8.07
2018-12-25T11:30:36.402Z,8.13
2018-12-25T11:33:17.830Z,8.17
2018-12-25T11:35:57.120Z,8.22
2018-12-25T11:38:37.402Z,8.31
2018-12-25T11:41:18.901Z,8.37
2018-12-25T11:43:57.991Z,8.42
2018-12-25T11:46:42.016Z,8.41
2018-12-25T11:49:26.295Z,8.43
2018-12-25T11:52:07.014Z,8.47
2018-12-25T11:54:51.256Z,8.57
2018-12-25T11:57:30.866Z,8.64
2018-12-25T12:00:10.337Z,8.69
2018-12-25T12:02:50.569Z,8.74
2018-12-25T12:05:33.908Z,8.67
2018-12-25T12:08:14.792Z,8.78
2018-12-25T12:10:53.614Z,8.80
2018-12-25T12:13:32.542Z,8.85
2018-12-25T12:16:07.215Z,8.91
2018-12-25T12:18:47.360Z,8.98
2018-12-25T12:21:27.083Z,9.03
2018-12-25T12:24:07.675Z,9.06
2018-12-25T12:26:50.360Z,9.08
2018-12-25T12:29:29.974Z,9.11
2018-12-25T12:32:13.813Z,9.12
2018-12-25T12:34:55.364Z,9.18
2018-12-25T12:37:38.121Z,9.12
2018-12-25T12:40:16.984Z,9.02
2018-12-25T12:43:00.142Z,8.95
2018-12-25T12:45:41.404Z,8.96
2018-12-25T12:48:24.886Z,9.01
2018-12-25T12:51:07.935Z,9.05
2018-12-25T12:53:47.900Z,9.09
2018-12-25T12:56:25.585Z,9.24
2018-12-25T12:59:08.210Z,9.40
2018-12-25T13:01:48.643Z,9.53
2018-12-25T13:04:30.130Z,9.56
2018-12-25T13:07:08.080Z,9.49
2018-12-25T13:09:47.190Z,9.39
2018-12-25T13:12:28.285Z,9.37
2018-12-25T13:15:08.513Z,9.34
2018-12-25T13:17:47.283Z,9.31
2018-12-25T13:20:28.533Z,9.32
2018-12-25T13:23:08.680Z,9.32
2018-12-25T13:25:48.622Z,9.30
2018-12-25T13:28:33.976Z,9.25
2018-12-25T13:31:18.330Z,9.25
2018-12-25T13:34:04.055Z,9.27
2018-12-25T13:36:45.136Z,9.26
2018-12-25T13:39:27.094Z,9.27
2018-12-25T13:42:05.104Z,9.27
2018-12-25T13:44:45.389Z,9.26
2018-12-25T13:47:26.044Z,9.25
2018-12-25T13:50:06.064Z,9.23
2018-12-25T13:52:49.184Z,9.19
2018-12-25T13:55:29.921Z,9.19
2018-12-25T13:58:11.440Z,9.20
2018-12-25T14:00:54.135Z,9.20
2018-12-25T14:03:37.357Z,9.19
2018-12-25T14:06:17.262Z,9.19
2018-12-25T14:09:00.075Z,9.17
2018-12-25T14:11:41.729Z,9.16
2018-12-25T14:14:22.399Z,9.15
2018-12-25T14:17:03.702Z,9.15
2018-12-25T14:19:42.765Z,9.14
2018-12-25T14:22:23.213Z,9.13
2018-12-25T14:25:05.705Z,9.11
2018-12-25T14:27:46.392Z,9.12
2018-12-25T14:30:28.147Z,9.12
2018-12-25T14:33:07.415Z,9.11
2018-12-25T14:35:50.737Z,9.10
2018-12-25T14:38:31.526Z,9.07
2018-12-25T14:41:11.528Z,9.06
2018-12-25T14:43:52.325Z,9.03
2018-12-25T14:46:34.419Z,9.01
2018-12-25T14:49:18.195Z,9.00
2018-12-25T14:51:56.337Z,8.97
2018-12-25T14:54:36.263Z,8.92
2018-12-25T14:57:19.920Z,8.88
2018-12-25T15:00:00.435Z,8.85
2018-12-25T15:02:43.452Z,8.83
2018-12-25T15:05:23.820Z,8.81
2018-12-25T15:08:02.874Z,8.76
2018-12-25T15:10:42.354Z,8.75
2018-12-25T15:13:27.734Z,8.72
2018-12-25T15:16:08.047Z,8.70
2018-12-25T15:18:48.357Z,8.69
2018-12-25T15:21:27.744Z,8.65
2018-12-25T15:24:08.215Z,8.63
2018-12-25T15:26:48.181Z,8.59
2018-12-25T15:29:30.046Z,8.58
2018-12-25T15:32:15.374Z,8.55
2018-12-25T15:35:00.200Z,8.52
2018-12-25T15:37:40.440Z,8.51
2018-12-25T15:40:22.057Z,8.48
2018-12-25T15:43:03.322Z,8.46
2018-12-25T15:45:45.388Z,8.44
2018-12-25T15:48:25.937Z,8.40
2018-12-25T15:51:07.078Z,8.36
2018-12-25T15:53:50.579Z,8.35
2018-12-25T15:56:37.173Z,8.33
2018-12-25T15:59:17.511Z,8.32
2018-12-25T16:01:58.114Z,8.30
2018-12-25T16:04:40.645Z,8.27
2018-12-25T16:07:20.419Z,8.25
2018-12-25T16:10:00.169Z,8.24
2018-12-25T16:12:45.576Z,8.25
2018-12-25T16:15:24.165Z,8.26
2018-12-25T16:18:09.586Z,8.24
2018-12-25T16:20:54.185Z,8.24
2018-12-25T16:23:32.852Z,8.22
2018-12-25T16:26:13.159Z,8.20
2018-12-25T16:28:53.340Z,8.19
2018-12-25T16:31:37.665Z,8.17
2018-12-25T16:34:19.961Z,8.13
2018-12-25T16:37:00.419Z,8.11
2018-12-25T16:39:44.873Z,8.10
2018-12-25T16:42:24.880Z,8.09
2018-12-25T16:45:05.135Z,8.08
2018-12-25T16:47:46.512Z,8.07
2018-12-25T16:50:27.717Z,8.05
2018-12-25T16:53:08.383Z,8.03
2018-12-25T16:55:48.190Z,8.03
2018-12-25T16:58:28.161Z,8.01
2018-12-25T17:01:08.939Z,8.02
2018-12-25T17:03:49.497Z,8.01
2018-12-25T17:06:32.330Z,8.02
2018-12-25T17:09:15.682Z,8.00
2018-12-25T17:11:54.679Z,7.99
2018-12-25T17:14:35.459Z,7.97
2018-12-25T17:17:19.007Z,7.96
2018-12-25T17:20:02.603Z,7.98
2018-12-25T17:22:42.915Z,7.99
2018-12-25T17:25:22.476Z,8.00
2018-12-25T17:28:02.610Z,7.98
2018-12-25T17:30:43.707Z,8.00
2018-12-25T17:33:24.094Z,7.98
2018-12-25T17:36:03.614Z,8.01
2018-12-25T17:38:43.829Z,8.01
2018-12-25T17:41:27.300Z,8.02
2018-12-25T17:44:06.378Z,8.04
2018-12-25T17:46:51.039Z,8.03
2018-12-25T17:49:33.520Z,8.05
2018-12-25T17:52:12.777Z,8.05
2018-12-25T17:54:52.800Z,8.06
2018-12-25T17:57:32.553Z,8.06
2018-12-25T18:00:12.058Z,8.05
2018-12-25T18:02:53.546Z,8.06
2018-12-25T18:05:34.420Z,8.07
2018-12-25T18:08:18.126Z,8.06
2018-12-25T18:10:54.756Z,8.08
2018-12-25T18:13:46.016Z,8.07
2018-12-25T18:16:30.502Z,8.07
2018-12-25T18:19:11.823Z,8.05
2018-12-25T18:21:55.410Z,8.03
2018-12-25T18:24:46.248Z,8.02
2018-12-25T18:27:45.043Z,8.02
2018-12-25T18:30:23.984Z,7.98
2018-12-25T18:33:09.617Z,7.96
2018-12-25T18:35:47.394Z,7.96
2018-12-25T18:38:29.282Z,7.94
2018-12-25T18:41:09.322Z,7.91
2018-12-25T18:43:54.213Z,7.87
2018-12-25T18:46:40.310Z,7.81
2018-12-25T18:49:22.652Z,7.73
2018-12-25T18:52:10.487Z,7.71
2018-12-25T18:55:02.387Z,7.69
2018-12-25T18:57:45.724Z,7.68
2018-12-25T19:00:24.994Z,7.67
2018-12-25T19:03:08.163Z,7.61
2018-12-25T19:05:49.081Z,7.56
2018-12-25T19:08:32.152Z,7.50
2018-12-25T19:11:14.199Z,7.45
2018-12-25T19:13:58.097Z,7.40
2018-12-25T19:16:39.737Z,7.36
2018-12-25T19:19:19.959Z,7.31
2018-12-25T19:22:02.475Z,7.22
2018-12-25T19:28:42.544Z,7.06
2018-12-25T19:31:25.638Z,6.86
2018-12-25T19:34:14.494Z,6.80
2018-12-25T19:36:59.966Z,6.78
2018-12-25T19:39:41.119Z,6.80
2018-12-25T19:42:27.816Z,6.87
2018-12-25T19:45:00.633Z,6.93
2018-12-25T19:47:40.431Z,6.99
2018-12-25T19:50:19.935Z,7.03
2018-12-25T19:53:03.425Z,7.06
2018-12-25T19:55:43.398Z,7.05
2018-12-25T19:58:26.574Z,7.00
2018-12-25T20:01:08.014Z,6.91
2018-12-25T20:04:16.358Z,6.81
2018-12-25T20:07:50.916Z,6.68
2018-12-25T20:11:54.200Z,6.57
2018-12-25T20:15:09.448Z,6.39
2018-12-25T20:18:28.580Z,6.31
2018-12-25T20:22:28.280Z,6.26
2018-12-25T20:26:06.193Z,6.20
2018-12-25T20:29:41.502Z,6.14
2018-12-25T20:33:24.755Z,6.05
2018-12-25T20:36:53.904Z,5.99
2018-12-25T20:40:40.996Z,5.98
2018-12-25T20:44:12.030Z,5.94
2018-12-25T20:48:15.514Z,5.84
2018-12-25T20:51:58.913Z,5.78
2018-12-25T20:55:44.844Z,5.73
2018-12-25T20:59:27.993Z,5.66
2018-12-25T21:03:25.600Z,5.66
2018-12-25T21:07:17.226Z,5.61
2018-12-25T21:11:03.652Z,5.50
2018-12-25T21:15:03.292Z,5.43
2018-12-25T21:18:46.835Z,5.48
2018-12-25T21:22:31.854Z,5.61
2018-12-25T21:26:00.981Z,5.70
2018-12-25T21:28:42.910Z,5.77
2018-12-25T21:31:26.209Z,5.79
2018-12-25T21:34:07.117Z,5.84
2018-12-25T21:36:55.247Z,5.90
2018-12-25T21:39:39.331Z,5.95
2018-12-25T21:42:39.035Z,5.98
2018-12-25T21:45:32.894Z,6.05
2018-12-25T21:48:19.187Z,6.08
2018-12-25T21:51:00.325Z,6.11
2018-12-25T21:53:48.977Z,6.14
2018-12-25T21:56:33.139Z,6.16
2018-12-25T21:59:17.091Z,6.16
2018-12-25T22:02:26.403Z,6.18
2018-12-25T22:05:08.362Z,6.20
2018-12-25T22:08:05.521Z,6.20
2018-12-25T22:11:03.494Z,6.21
2018-12-25T22:13:48.255Z,6.22
2018-12-25T22:16:35.866Z,6.24
2018-12-25T22:19:24.515Z,6.14
2018-12-25T22:22:01.867Z,6.27
2018-12-25T22:24:48.420Z,6.28
2018-12-25T22:27:39.242Z,6.31
2018-12-25T22:30:25.250Z,6.32
2018-12-25T22:33:13.925Z,6.33
2018-12-25T22:35:57.322Z,6.34
2018-12-25T22:38:38.108Z,6.36
2018-12-25T22:41:17.493Z,6.37
2018-12-25T22:44:01.566Z,6.39
2018-12-25T22:46:40.671Z,6.43
2018-12-25T22:49:23.135Z,6.46
2018-12-25T22:52:02.218Z,6.46
2018-12-25T22:54:42.722Z,6.46
2018-12-25T22:57:41.902Z,6.46
2018-12-25T23:00:25.946Z,6.46
2018-12-25T23:03:09.685Z,6.45
2018-12-25T23:05:55.313Z,6.43
2018-12-25T23:08:34.235Z,6.42
2018-12-25T23:11:07.309Z,6.40
2018-12-25T23:13:46.891Z,6.37
2018-12-25T23:16:23.343Z,6.33
2018-12-25T23:19:06.768Z,6.32
2018-12-25T23:21:58.862Z,6.30
2018-12-25T23:24:42.968Z,6.30
2018-12-25T23:27:27.287Z,6.33
2018-12-25T23:30:07.296Z,6.38
2018-12-25T23:32:52.354Z,6.40
2018-12-25T23:35:38.402Z,6.44
2018-12-25T23:38:18.478Z,6.45
2018-12-25T23:41:00.531Z,6.46
2018-12-25T23:43:34.873Z,6.50
2018-12-25T23:46:16.211Z,6.52
2018-12-25T23:48:53.451Z,6.53
2018-12-25T23:51:32.557Z,6.55
2018-12-25T23:54:13.419Z,6.55
2018-12-25T23:57:03.938Z,6.56
2018-12-25T23:59:51.195Z,6.58
